Time;durP1;ratioP1;P1;durP2;ratioP2;P2;SDS_P1;SDS_P2;PMS_P1;PMS_P2;Temp;Humidity;BMP_temperature;BMP_pressure;BME280_temperature;BME280_humidity;BME280_pressure;Samples;Min_cycle;Max_cycle;Signal;HPM_P1;HPM_P2
2023/05/25 00:01:48;;;;;;;11.10;4.32;;;;;;;15.39;61.24;102757.88;5049965;28;20083;-45
2023/05/25 00:04:15;;;;;;;8.75;4.43;;;;;;;15.41;60.98;102751.81;5051243;28;20037;-44
2023/05/25 00:06:41;;;;;;;13.43;4.68;;;;;;;15.39;61.29;102756.16;5051662;28;20487;-45
2023/05/25 00:09:06;;;;;;;13.13;5.28;;;;;;;15.34;61.44;102751.63;5051369;28;20137;-49
2023/05/25 00:11:32;;;;;;;10.75;4.38;;;;;;;15.40;61.15;102759.66;5049653;28;20496;-45
2023/05/25 00:13:57;;;;;;;14.82;5.30;;;;;;;15.29;61.93;102754.16;5048119;28;20033;-45
2023/05/25 00:16:23;;;;;;;11.75;5.38;;;;;;;15.37;62.14;102751.69;5048061;28;20037;-52
2023/05/25 00:18:48;;;;;;;13.35;5.13;;;;;;;15.39;62.28;102756.16;5047915;28;20399;-46
2023/05/25 00:21:14;;;;;;;13.32;5.10;;;;;;;15.35;62.48;102762.19;5048451;28;20459;-47
2023/05/25 00:23:39;;;;;;;14.32;5.30;;;;;;;15.32;62.83;102759.47;5048711;28;20056;-47
2023/05/25 00:26:05;;;;;;;12.23;4.93;;;;;;;15.51;62.48;102759.91;5030273;28;20528;-44
2023/05/25 00:28:30;;;;;;;13.60;5.30;;;;;;;15.44;63.29;102757.13;5047966;28;20064;-48
2023/05/25 00:30:55;;;;;;;13.15;5.25;;;;;;;15.61;62.69;102754.06;5048326;28;20040;-50
2023/05/25 00:33:21;;;;;;;13.85;5.35;;;;;;;15.57;62.92;102758.34;5048060;28;20128;-45
2023/05/25 00:35:46;;;;;;;9.85;4.95;;;;;;;15.73;62.18;102767.47;5050389;28;20033;-45
2023/05/25 00:38:18;;;;;;;12.50;5.00;;;;;;;15.65;62.47;102762.03;5048973;28;20440;-48
2023/05/25 00:40:44;;;;;;;9.15;4.45;;;;;;;15.64;62.41;102762.00;5047441;28;20068;-44
2023/05/25 00:43:10;;;;;;;10.02;4.43;;;;;;;15.63;62.07;102760.22;5048314;28;20053;-46
2023/05/25 00:45:36;;;;;;;10.38;4.50;;;;;;;15.56;62.18;102760.94;5048050;28;20100;-45
2023/05/25 00:48:03;;;;;;;15.95;4.80;;;;;;;15.56;61.87;102756.56;5048474;28;20033;-45
2023/05/25 00:50:52;;;;;;;12.65;4.50;;;;;;;15.41;62.13;102762.34;5051038;28;20040;-46
2023/05/25 00:53:18;;;;;;;10.35;4.20;;;;;;;15.40;61.90;102763.19;5047964;28;20449;-46
2023/05/25 00:55:53;;;;;;;14.23;5.10;;;;;;;15.35;61.95;102759.56;5048268;28;20028;-47
2023/05/25 00:58:20;;;;;;;10.75;4.80;;;;;;;15.29;62.46;102762.06;5047406;28;20155;-47
2023/05/25 01:00:48;;;;;;;9.60;4.70;;;;;;;15.28;62.24;102752.38;5047673;28;20334;-44
2023/05/25 01:03:20;;;;;;;14.40;4.78;;;;;;;15.24;62.51;102752.28;5047908;28;20032;-49
2023/05/25 01:05:47;;;;;;;12.05;4.68;;;;;;;15.20;62.76;102766.19;5047909;28;20036;-46
2023/05/25 01:08:15;;;;;;;10.20;4.57;;;;;;;15.18;62.73;102774.03;5048177;28;20032;-46
2023/05/25 01:10:41;;;;;;;9.50;4.68;;;;;;;15.13;62.68;102770.38;5049746;28;20372;-44
2023/05/25 01:13:09;;;;;;;12.25;4.93;;;;;;;15.11;63.00;102777.38;5048243;28;20033;-43
2023/05/25 01:15:36;;;;;;;12.02;4.95;;;;;;;15.01;63.56;102775.34;5049341;28;20068;-43
2023/05/25 01:18:03;;;;;;;10.85;4.78;;;;;;;15.05;63.35;102779.84;5049464;28;20036;-45
2023/05/25 01:20:29;;;;;;;11.80;5.25;;;;;;;15.02;63.40;102774.50;5047890;28;20147;-48
2023/05/25 01:22:57;;;;;;;10.77;4.60;;;;;;;15.00;63.38;102779.69;5047957;28;20243;-45
2023/05/25 01:25:50;;;;;;;11.35;4.68;;;;;;;14.96;63.46;102772.59;5049488;28;20037;-45
2023/05/25 01:28:21;;;;;;;12.40;5.00;;;;;;;14.90;63.56;102771.56;5048122;28;20090;-44
2023/05/25 01:30:49;;;;;;;11.30;4.72;;;;;;;14.89;63.52;102782.91;5047699;28;20036;-44
2023/05/25 01:33:17;;;;;;;12.30;4.88;;;;;;;14.90;63.37;102785.56;5047705;28;20075;-47
2023/05/25 01:35:43;;;;;;;13.85;5.25;;;;;;;14.83;63.91;102783.63;5049336;28;20033;-51
2023/05/25 01:38:09;;;;;;;11.70;5.10;;;;;;;14.83;63.67;102788.00;5048363;28;20039;-48
2023/05/25 01:40:34;;;;;;;11.40;4.72;;;;;;;14.78;63.94;102789.63;5047407;28;20028;-51
2023/05/25 01:43:00;;;;;;;12.25;5.10;;;;;;;14.76;64.15;102789.56;5047424;28;20051;-46
2023/05/25 01:45:26;;;;;;;11.20;4.60;;;;;;;14.76;64.10;102789.56;5047364;28;20037;-47
2023/05/25 01:48:02;;;;;;;10.60;4.47;;;;;;;14.81;64.59;102792.34;5047312;28;20514;-46
2023/05/25 01:50:47;;;;;;;15.30;5.43;;;;;;;14.82;65.67;102792.34;5049662;28;20466;-45
2023/05/25 01:53:21;;;;;;;12.40;5.30;;;;;;;14.97;65.37;102799.75;5050688;28;20523;-45
2023/05/25 01:55:54;;;;;;;13.18;5.10;;;;;;;15.06;65.26;102796.50;5050504;28;20033;-45
2023/05/25 01:58:21;;;;;;;10.13;4.75;;;;;;;15.18;64.83;102796.81;5050835;28;20037;-50
2023/05/25 02:00:49;;;;;;;11.68;5.43;;;;;;;15.09;64.45;102791.31;5050735;28;20064;-47
2023/05/25 02:03:15;;;;;;;10.00;4.88;;;;;;;15.09;64.11;102789.56;5050200;28;20029;-46
2023/05/25 02:05:41;;;;;;;9.77;4.90;;;;;;;15.05;64.41;102792.09;5051191;28;20446;-45
2023/05/25 02:08:06;;;;;;;11.80;5.43;;;;;;;15.00;65.10;102791.97;5050766;28;20033;-47
2023/05/25 02:10:31;;;;;;;12.57;5.32;;;;;;;15.03;64.62;102785.03;5052150;28;20427;-44
2023/05/25 02:12:57;;;;;;;11.45;5.20;;;;;;;14.98;64.58;102796.28;5051730;28;20565;-44
2023/05/25 02:15:22;;;;;;;11.48;5.28;;;;;;;14.88;65.19;102795.13;5051943;28;20575;-46
2023/05/25 02:17:47;;;;;;;10.30;5.30;;;;;;;14.71;66.18;102796.44;5052337;28;20292;-46
2023/05/25 02:20:13;;;;;;;14.57;6.10;;;;;;;14.82;66.03;102805.47;5051171;28;20593;-49
2023/05/25 02:22:38;;;;;;;16.25;6.00;;;;;;;14.73;66.54;102806.97;5049933;28;20348;-49
2023/05/25 02:25:04;;;;;;;12.52;5.80;;;;;;;14.79;66.08;102800.16;5050019;28;20177;-46
2023/05/25 02:27:29;;;;;;;13.95;5.53;;;;;;;14.93;65.87;102800.53;5051276;28;20637;-46
2023/05/25 02:29:55;;;;;;;15.00;6.00;;;;;;;14.83;66.82;102803.75;5051089;28;20036;-51
2023/05/25 02:32:21;;;;;;;11.20;5.50;;;;;;;14.93;65.96;102796.19;5050399;28;20037;-45
2023/05/25 02:34:46;;;;;;;12.07;5.72;;;;;;;14.99;65.50;102803.31;5051476;28;20041;-46
2023/05/25 02:37:12;;;;;;;12.40;6.18;;;;;;;14.81;65.92;102803.72;5055498;28;20036;-47
2023/05/25 02:39:37;;;;;;;12.90;5.82;;;;;;;14.93;65.33;102808.41;5057996;28;20154;-44
2023/05/25 02:42:03;;;;;;;13.60;6.10;;;;;;;14.91;65.23;102808.38;5052928;28;20033;-44
2023/05/25 02:44:29;;;;;;;14.13;6.13;;;;;;;14.81;65.55;102816.88;5050710;28;20056;-44
2023/05/25 02:46:55;;;;;;;12.85;6.07;;;;;;;14.86;65.22;102812.63;5050795;28;20029;-43
2023/05/25 02:49:20;;;;;;;14.43;5.82;;;;;;;14.61;66.27;102812.78;5050366;28;20511;-49
2023/05/25 02:51:45;;;;;;;15.70;6.25;;;;;;;14.69;65.71;102818.25;5049390;28;20036;-48
2023/05/25 02:54:11;;;;;;;12.75;6.10;;;;;;;14.71;65.31;102816.53;5049916;28;20033;-46
2023/05/25 02:56:36;;;;;;;9.10;5.82;;;;;;;14.66;65.30;102821.69;5049811;28;20403;-46
2023/05/25 02:59:01;;;;;;;12.25;6.20;;;;;;;14.56;65.43;102823.19;5049889;28;20040;-47
2023/05/25 03:01:29;;;;;;;15.48;6.10;;;;;;;14.49;65.62;102822.94;5049692;28;20474;-47
2023/05/25 03:03:55;;;;;;;13.88;6.55;;;;;;;14.43;65.64;102823.66;5049556;28;20036;-50
2023/05/25 03:06:21;;;;;;;12.70;6.10;;;;;;;14.48;65.47;102826.41;5049534;28;20029;-47
2023/05/25 03:08:47;;;;;;;19.83;6.68;;;;;;;14.40;65.29;102825.28;5049174;28;20036;-52
2023/05/25 03:11:12;;;;;;;17.05;6.68;;;;;;;14.39;65.77;102834.03;5050155;28;20429;-46
2023/05/25 03:13:37;;;;;;;14.98;6.55;;;;;;;14.46;65.38;102826.38;5048975;28;20039;-44
2023/05/25 03:16:03;;;;;;;14.15;6.20;;;;;;;14.44;65.58;102828.06;5049518;28;20044;-44
2023/05/25 03:18:28;;;;;;;13.05;6.22;;;;;;;14.46;65.64;102836.88;5049247;28;20059;-43
2023/05/25 03:20:53;;;;;;;13.27;6.95;;;;;;;14.41;65.99;102827.09;5049567;28;20036;-46
2023/05/25 03:23:19;;;;;;;13.52;6.72;;;;;;;14.41;66.05;102820.09;5048930;28;20033;-44
2023/05/25 03:25:45;;;;;;;13.15;6.55;;;;;;;14.54;66.04;102824.84;5049099;28;20029;-44
2023/05/25 03:28:10;;;;;;;17.02;6.65;;;;;;;14.51;66.11;102822.16;5049449;28;20071;-43
2023/05/25 03:30:36;;;;;;;15.82;6.97;;;;;;;14.48;66.15;102826.41;5049034;28;20036;-48
2023/05/25 03:33:01;;;;;;;14.30;6.75;;;;;;;14.45;65.94;102831.59;5048886;28;20021;-46
2023/05/25 03:35:26;;;;;;;14.55;6.90;;;;;;;14.35;66.03;102822.50;5048521;28;20417;-47
2023/05/25 03:37:51;;;;;;;13.32;6.72;;;;;;;14.34;65.85;102827.72;5048782;28;20718;-50
2023/05/25 03:40:17;;;;;;;14.77;7.00;;;;;;;14.37;65.44;102831.38;5048942;28;20068;-47
2023/05/25 03:42:42;;;;;;;15.35;7.40;;;;;;;14.28;65.67;102827.53;5048845;28;20032;-51
2023/05/25 03:45:08;;;;;;;13.23;7.18;;;;;;;14.25;65.65;102833.59;5049281;28;20029;-47
2023/05/25 03:47:35;;;;;;;13.88;7.18;;;;;;;14.25;65.71;102833.59;5049302;28;21034;-46
2023/05/25 03:50:00;;;;;;;15.98;7.40;;;;;;;14.22;65.79;102839.63;5049429;28;20037;-45
2023/05/25 03:52:26;;;;;;;12.32;6.97;;;;;;;14.24;65.85;102839.69;5047992;28;20384;-46
2023/05/25 03:54:51;;;;;;;15.15;7.25;;;;;;;14.27;65.76;102834.53;5048047;28;20045;-48
2023/05/25 03:57:16;;;;;;;13.90;7.05;;;;;;;14.26;65.99;102840.63;5048661;28;20025;-48
2023/05/25 03:59:41;;;;;;;13.60;7.28;;;;;;;14.28;66.22;102843.28;5048794;28;20534;-48
2023/05/25 04:02:07;;;;;;;11.77;7.03;;;;;;;14.32;66.17;102839.91;5029968;28;20041;-47
2023/05/25 04:04:32;;;;;;;15.43;7.05;;;;;;;14.35;66.07;102848.75;5048133;28;20083;-46
2023/05/25 04:06:57;;;;;;;15.95;7.57;;;;;;;14.37;66.04;102844.47;5048324;28;20035;-46
2023/05/25 04:09:23;;;;;;;13.30;6.93;;;;;;;14.37;66.03;102844.47;5048504;28;20551;-45
2023/05/25 04:11:48;;;;;;;15.98;7.28;;;;;;;14.39;66.38;102844.53;5047472;28;20033;-46
2023/05/25 04:14:13;;;;;;;16.60;7.72;;;;;;;14.42;66.33;102842.00;5048452;28;20048;-49
2023/05/25 04:16:40;;;;;;;15.85;7.70;;;;;;;14.44;66.51;102841.19;5048201;28;20438;-44
2023/05/25 04:19:05;;;;;;;16.48;7.72;;;;;;;14.48;66.80;102837.81;5048278;28;20033;-46
2023/05/25 04:21:31;;;;;;;17.95;8.43;;;;;;;14.51;66.87;102848.41;5029722;28;20525;-45
2023/05/25 04:23:57;;;;;;;14.05;7.38;;;;;;;14.61;66.87;102852.16;5048251;28;20029;-49
2023/05/25 04:26:25;;;;;;;14.40;7.60;;;;;;;14.71;66.57;102855.94;5049162;28;20114;-47
2023/05/25 04:28:50;;;;;;;16.75;8.15;;;;;;;14.70;66.65;102854.19;5048891;28;20040;-45
2023/05/25 04:31:16;;;;;;;20.25;8.70;;;;;;;14.68;66.99;102855.84;5048386;28;20021;-45
2023/05/25 04:33:41;;;;;;;17.58;8.63;;;;;;;14.66;67.98;102855.81;5047856;28;20521;-48
2023/05/25 04:36:09;;;;;;;16.00;8.65;;;;;;;14.67;67.66;102862.84;5047674;28;20028;-46
2023/05/25 04:38:35;;;;;;;17.63;8.27;;;;;;;14.79;67.50;102860.56;5047790;28;20045;-44
2023/05/25 04:41:04;;;;;;;18.75;8.70;;;;;;;14.91;67.37;102863.53;5048247;28;20063;-47
2023/05/25 04:43:30;;;;;;;16.38;8.07;;;;;;;14.94;67.22;102870.59;5047323;28;20091;-47
2023/05/25 04:45:56;;;;;;;15.55;8.20;;;;;;;15.07;67.04;102874.41;5030098;28;20029;-45
2023/05/25 04:48:23;;;;;;;16.48;8.35;;;;;;;15.17;66.75;102869.47;5047520;28;20111;-48
2023/05/25 04:50:48;;;;;;;15.48;7.85;;;;;;;15.19;66.99;102872.13;5047740;28;20090;-45
2023/05/25 04:53:14;;;;;;;14.93;7.88;;;;;;;15.31;66.89;102880.31;5047912;28;20033;-48
2023/05/25 04:55:39;;;;;;;16.08;8.27;;;;;;;15.31;66.69;102881.22;5047848;28;20044;-48
2023/05/25 04:58:04;;;;;;;15.18;8.10;;;;;;;15.26;66.99;102881.94;5047982;28;20395;-45
2023/05/25 05:00:33;;;;;;;17.55;7.75;;;;;;;15.59;66.58;102877.59;5030083;28;20045;-46
2023/05/25 05:02:59;;;;;;;14.43;7.35;;;;;;;15.73;66.51;102881.44;5047532;28;20033;-51
2023/05/25 05:05:24;;;;;;;15.30;7.97;;;;;;;15.92;66.04;102885.38;5029607;28;20124;-50
2023/05/25 05:07:50;;;;;;;16.52;8.30;;;;;;;16.12;65.74;102885.84;5047699;28;20124;-47
2023/05/25 05:10:16;;;;;;;14.40;7.55;;;;;;;16.22;65.42;102883.44;5047828;28;20060;-45
2023/05/25 05:12:41;;;;;;;14.70;7.93;;;;;;;16.87;64.28;102890.97;5048322;28;20475;-44
2023/05/25 05:15:07;;;;;;;14.77;8.30;;;;;;;18.13;58.83;102882.59;5048170;28;20484;-46
2023/05/25 05:17:32;;;;;;;13.13;7.40;;;;;;;19.66;56.89;102878.19;5048622;28;20041;-46
2023/05/25 05:19:58;;;;;;;13.88;7.32;;;;;;;21.35;51.24;102878.06;5051104;28;20032;-45
2023/05/25 05:22:23;;;;;;;18.52;8.98;;;;;;;21.51;47.20;102883.38;5050321;28;20037;-47
2023/05/25 05:24:48;;;;;;;15.60;8.25;;;;;;;21.91;44.10;102890.41;5051958;28;20033;-46
2023/05/25 05:27:15;;;;;;;18.95;8.80;;;;;;;22.11;46.46;102882.44;5034294;28;20075;-50
2023/05/25 05:29:41;;;;;;;14.02;8.05;;;;;;;22.58;44.77;102885.81;5053200;28;20029;-45
2023/05/25 05:32:06;;;;;;;13.68;8.23;;;;;;;22.49;43.92;102893.84;5059454;28;20089;-47
2023/05/25 05:34:33;;;;;;;15.77;8.13;;;;;;;22.63;44.06;102884.00;5060770;28;20060;-51
2023/05/25 05:37:01;;;;;;;19.83;11.35;;;;;;;22.45;44.17;102885.88;5054721;28;20033;-48
2023/05/25 05:39:26;;;;;;;17.77;8.90;;;;;;;22.01;46.56;102896.66;5052056;28;20383;-51
2023/05/25 05:41:52;;;;;;;14.30;7.22;;;;;;;24.18;41.40;102884.63;5053571;28;20036;-48
2023/05/25 05:44:20;;;;;;;14.43;8.10;;;;;;;23.35;42.12;102895.16;5053168;28;20033;-44
2023/05/25 05:46:45;;;;;;;15.23;7.70;;;;;;;23.59;39.92;102894.09;5053571;28;20036;-47
2023/05/25 05:49:10;;;;;;;14.27;6.60;;;;;;;25.41;36.21;102893.63;5051337;28;20108;-54
2023/05/25 05:51:35;;;;;;;14.60;7.20;;;;;;;24.49;38.00;102899.38;5050599;28;20024;-47
2023/05/25 05:54:01;;;;;;;14.23;7.63;;;;;;;24.61;38.93;102901.91;5050713;28;20037;-50
2023/05/25 05:56:26;;;;;;;17.23;8.00;;;;;;;24.70;38.99;102905.34;5049304;28;20048;-48
2023/05/25 05:58:53;;;;;;;10.75;6.28;;;;;;;25.19;37.04;102903.75;5050843;28;20546;-45
2023/05/25 06:01:18;;;;;;;15.73;6.80;;;;;;;24.71;38.57;102915.09;5050633;28;20063;-49
2023/05/25 06:03:44;;;;;;;16.60;8.07;;;;;;;25.14;38.12;102910.97;5050923;28;20056;-50
2023/05/25 06:06:10;;;;;;;13.25;7.10;;;;;;;24.34;38.34;102918.22;5049964;28;20025;-45
2023/05/25 06:08:35;;;;;;;13.23;6.72;;;;;;;25.31;37.11;102913.41;5050876;28;20483;-53
2023/05/25 06:11:01;;;;;;;13.73;6.90;;;;;;;23.99;39.50;102917.69;5050905;28;20060;-48
2023/05/25 06:13:26;;;;;;;13.05;6.65;;;;;;;23.85;40.62;102921.34;5052340;28;20041;-46
2023/05/25 06:15:51;;;;;;;13.55;6.90;;;;;;;23.51;42.51;102916.34;5051753;28;20105;-47
2023/05/25 06:18:17;;;;;;;13.63;6.97;;;;;;;24.30;40.25;102920.94;5051299;28;20029;-48
2023/05/25 06:20:42;;;;;;;11.80;6.05;;;;;;;25.54;38.06;102929.03;5050935;28;20064;-50
2023/05/25 06:23:10;;;;;;;14.35;6.50;;;;;;;25.03;38.19;102924.47;5049845;28;20037;-46
2023/05/25 06:25:35;;;;;;;23.10;6.80;;;;;;;25.30;37.47;102927.66;5049944;28;20083;-44
2023/05/25 06:28:01;;;;;;;11.88;6.65;;;;;;;24.18;39.64;102928.19;5049375;28;20491;-44
2023/05/25 06:30:26;;;;;;;13.10;6.80;;;;;;;23.65;40.49;102926.00;5049528;28;20068;-48
2023/05/25 06:32:51;;;;;;;15.25;6.75;;;;;;;22.84;42.14;102930.94;5049909;28;20056;-46
2023/05/25 06:35:18;;;;;;;13.00;6.55;;;;;;;22.72;42.16;102933.66;5049530;28;20037;-49
2023/05/25 06:37:45;;;;;;;11.77;6.50;;;;;;;21.94;44.28;102938.22;5049488;28;20479;-48
2023/05/25 06:40:10;;;;;;;14.27;6.97;;;;;;;21.94;43.98;102934.69;5050130;28;20090;-53
2023/05/25 06:42:36;;;;;;;15.65;6.70;;;;;;;21.72;44.64;102929.38;5049204;28;20032;-49
2023/05/25 06:45:03;;;;;;;11.48;6.22;;;;;;;20.75;46.41;102938.88;5049988;28;20094;-47
2023/05/25 06:47:28;;;;;;;15.10;6.50;;;;;;;20.93;46.12;102946.91;5050130;28;20032;-47
2023/05/25 06:49:53;;;;;;;12.43;5.88;;;;;;;20.73;47.33;102943.31;5049752;28;20041;-50
2023/05/25 06:52:19;;;;;;;15.85;7.13;;;;;;;20.20;49.27;102944.75;5048560;28;20400;-50
2023/05/25 06:54:44;;;;;;;12.00;6.55;;;;;;;20.12;49.60;102954.44;5050805;28;20120;-50
2023/05/25 06:57:09;;;;;;;15.23;7.35;;;;;;;20.29;49.10;102951.88;5049746;28;20032;-48
2023/05/25 06:59:34;;;;;;;15.35;8.50;;;;;;;19.95;49.77;102953.38;5050823;28;20123;-47
2023/05/25 07:02:00;;;;;;;14.25;7.63;;;;;;;20.35;49.16;102953.72;5049710;28;20037;-52
2023/05/25 07:04:26;;;;;;;15.98;7.88;;;;;;;20.34;49.09;102963.41;5050166;28;20060;-45
2023/05/25 07:06:51;;;;;;;16.05;8.05;;;;;;;20.45;48.88;102966.13;5047590;28;20120;-45
2023/05/25 07:09:16;;;;;;;17.67;8.70;;;;;;;19.95;49.88;102963.09;5047510;28;20085;-48
2023/05/25 07:11:42;;;;;;;18.90;8.95;;;;;;;19.81;49.66;102973.59;5049585;28;20112;-45
2023/05/25 07:14:07;;;;;;;18.65;9.02;;;;;;;19.73;49.62;102967.34;5049193;28;20498;-48
2023/05/25 07:16:33;;;;;;;16.05;8.32;;;;;;;19.66;51.00;102971.69;5049549;28;20041;-47
2023/05/25 07:18:58;;;;;;;21.17;9.88;;;;;;;18.97;52.13;102979.72;5049241;28;20033;-44
2023/05/25 07:21:23;;;;;;;17.27;8.63;;;;;;;19.79;51.66;102970.94;5048901;28;20040;-42
2023/05/25 07:23:49;;;;;;;14.80;8.23;;;;;;;21.04;47.40;102972.56;5048887;28;20554;-51
2023/05/25 07:26:15;;;;;;;15.57;7.90;;;;;;;21.95;44.07;102969.25;5048300;28;20064;-45
2023/05/25 07:28:40;;;;;;;12.48;6.97;;;;;;;22.41;43.12;102971.81;5049051;28;20116;-48
2023/05/25 07:31:05;;;;;;;13.00;6.47;;;;;;;22.33;42.85;102977.16;5049243;28;20113;-45
2023/05/25 07:33:31;;;;;;;15.80;7.35;;;;;;;21.78;44.57;102979.81;5048480;28;20044;-45
2023/05/25 07:35:56;;;;;;;13.30;7.30;;;;;;;21.63;45.65;102979.84;5048938;28;20025;-45
2023/05/25 07:38:21;;;;;;;14.88;7.20;;;;;;;21.64;44.30;102975.41;5047827;28;20036;-48
2023/05/25 07:40:48;;;;;;;13.85;7.00;;;;;;;21.49;45.03;102978.03;5049450;28;20029;-44
2023/05/25 07:43:13;;;;;;;12.15;6.57;;;;;;;21.44;44.73;102981.56;5048393;28;20036;-46
2023/05/25 07:45:38;;;;;;;7.75;4.60;;;;;;;22.02;45.00;102978.97;5048441;28;20029;-46
2023/05/25 07:48:06;;;;;;;10.43;4.30;;;;;;;22.56;40.03;102979.78;5047541;28;20033;-50
2023/05/25 07:50:31;;;;;;;10.65;4.25;;;;;;;22.98;41.33;102987.63;5048683;28;20033;-46
2023/05/25 07:52:58;;;;;;;10.65;4.15;;;;;;;22.89;39.82;102987.66;5048544;28;20067;-46
2023/05/25 07:55:25;;;;;;;9.85;4.22;;;;;;;22.94;41.26;102983.19;5048806;28;20087;-45
2023/05/25 07:57:51;;;;;;;11.05;5.03;;;;;;;22.49;41.14;102997.50;5047748;28;20029;-45
2023/05/25 08:00:17;;;;;;;8.68;4.00;;;;;;;22.82;39.60;102998.31;5048915;28;20040;-44
2023/05/25 08:02:42;;;;;;;8.98;3.53;;;;;;;22.59;40.69;103007.22;5049048;28;20033;-46
2023/05/25 08:05:08;;;;;;;7.32;3.50;;;;;;;22.78;40.60;103004.53;5046791;28;20119;-46
2023/05/25 08:07:34;;;;;;;6.80;3.72;;;;;;;22.55;40.57;102999.28;5050077;28;20056;-46
2023/05/25 08:10:00;;;;;;;8.80;3.80;;;;;;;22.70;41.26;103001.88;5050321;28;20029;-49
2023/05/25 08:12:26;;;;;;;8.52;4.20;;;;;;;22.87;40.43;103002.72;5049899;28;20511;-48
2023/05/25 08:14:52;;;;;;;8.15;4.20;;;;;;;22.69;39.87;103010.72;5050466;28;20124;-49
2023/05/25 08:17:18;;;;;;;8.85;4.60;;;;;;;22.15;40.92;103001.97;5048488;28;20044;-46
2023/05/25 08:19:43;;;;;;;8.93;4.75;;;;;;;21.40;42.77;103008.09;5048314;28;20029;-48
2023/05/25 08:22:09;;;;;;;9.52;4.10;;;;;;;21.45;43.36;103015.19;5048162;28;20033;-45
2023/05/25 08:24:34;;;;;;;10.00;4.53;;;;;;;21.15;43.07;103019.50;5048002;28;20068;-45
2023/05/25 08:27:00;;;;;;;10.13;4.40;;;;;;;20.68;45.29;103020.13;5047962;28;20037;-45
2023/05/25 08:29:26;;;;;;;8.43;4.60;;;;;;;20.66;45.37;103019.25;5045700;28;20090;-49
2023/05/25 08:31:51;;;;;;;10.50;4.63;;;;;;;20.60;46.37;103022.75;5047833;28;20033;-44
2023/05/25 08:34:16;;;;;;;10.77;4.60;;;;;;;20.50;46.38;103022.69;5048559;28;20044;-44
2023/05/25 08:36:42;;;;;;;8.68;4.68;;;;;;;20.54;46.02;103028.03;5048448;28;20049;-43
2023/05/25 08:39:09;;;;;;;11.18;4.68;;;;;;;20.15;46.86;103033.00;5049737;28;20033;-45
2023/05/25 08:41:35;;;;;;;9.90;4.07;;;;;;;20.07;47.49;103034.69;5048536;28;20033;-46
2023/05/25 08:44:05;;;;;;;9.93;4.65;;;;;;;19.81;47.67;103039.75;5048078;28;20120;-47
2023/05/25 08:46:31;;;;;;;10.32;4.25;;;;;;;19.87;48.54;103036.28;5048182;28;20098;-45
2023/05/25 08:49:02;;;;;;;11.10;4.20;;;;;;;20.05;48.03;103036.44;5048471;28;20578;-44
2023/05/25 08:51:35;;;;;;;10.10;4.65;;;;;;;19.88;48.25;103036.31;5048248;28;20952;-50
2023/05/25 08:54:12;;;;;;;9.45;4.43;;;;;;;20.18;48.64;103035.69;5048086;28;20777;-46
2023/05/25 08:56:48;;;;;;;12.23;4.13;;;;;;;20.35;47.22;103028.78;5047963;28;20112;-52
2023/05/25 08:59:39;;;;;;;9.63;3.72;;;;;;;20.47;47.30;103030.63;5049848;28;20039;-48
2023/05/25 09:02:27;;;;;;;8.70;4.00;;;;;;;20.55;46.83;103024.47;5051772;28;20055;-45
2023/05/25 09:04:54;;;;;;;7.90;3.70;;;;;;;20.74;46.46;103038.72;5051245;28;20132;-46
2023/05/25 09:07:20;;;;;;;6.82;3.42;;;;;;;20.45;46.17;103029.72;5051497;28;20037;-44
2023/05/25 09:09:46;;;;;;;7.95;3.88;;;;;;;20.51;46.97;103033.28;5051923;28;20472;-46
2023/05/25 09:12:14;;;;;;;8.15;3.47;;;;;;;20.46;46.32;103032.38;5051396;28;20029;-49
2023/05/25 09:14:44;;;;;;;7.55;3.28;;;;;;;20.06;46.22;103039.13;5051450;28;20407;-48
2023/05/25 09:17:11;;;;;;;7.47;3.50;;;;;;;20.31;46.16;103034.88;5034019;28;20457;-51
2023/05/25 09:19:36;;;;;;;7.82;3.47;;;;;;;20.30;44.89;103030.47;5052213;28;20143;-46
2023/05/25 09:22:02;;;;;;;8.50;3.47;;;;;;;20.43;45.55;103035.00;5033466;28;20112;-46
2023/05/25 09:24:28;;;;;;;10.25;3.80;;;;;;;20.67;44.91;103037.78;5033554;28;21082;-46
2023/05/25 09:26:53;;;;;;;7.00;3.90;;;;;;;20.72;44.35;103037.84;5051183;28;20134;-44
2023/05/25 09:29:19;;;;;;;10.00;4.13;;;;;;;20.68;45.66;103036.03;5051677;28;20503;-49
2023/05/25 09:31:45;;;;;;;9.30;4.38;;;;;;;21.14;44.48;103030.97;5051425;28;20033;-44
2023/05/25 09:34:12;;;;;;;9.23;4.43;;;;;;;21.55;44.17;103039.97;5051641;28;20037;-46
2023/05/25 09:36:40;;;;;;;8.90;4.15;;;;;;;21.41;43.85;103031.06;5052498;28;20029;-48
2023/05/25 09:39:08;;;;;;;6.90;3.60;;;;;;;21.99;42.50;103031.22;5051894;28;20044;-49
2023/05/25 09:41:33;;;;;;;8.23;3.88;;;;;;;22.75;41.67;103026.69;5050168;28;20025;-50
2023/05/25 09:44:00;;;;;;;10.10;4.28;;;;;;;22.05;41.32;103032.09;5051679;28;20037;-45
2023/05/25 09:46:26;;;;;;;9.38;4.07;;;;;;;22.01;42.22;103030.34;5052144;28;20036;-48
2023/05/25 09:48:52;;;;;;;7.50;3.78;;;;;;;22.05;42.71;103032.09;5052063;28;20028;-45
2023/05/25 09:51:17;;;;;;;10.43;4.32;;;;;;;21.71;42.55;103039.09;5052745;28;20498;-47
2023/05/25 09:53:43;;;;;;;9.50;4.28;;;;;;;21.59;42.82;103033.78;5052098;28;20033;-46
2023/05/25 09:56:11;;;;;;;6.75;4.38;;;;;;;21.40;42.48;103045.25;5034721;28;20518;-49
2023/05/25 09:58:36;;;;;;;9.05;4.07;;;;;;;21.44;42.85;103045.25;5051868;28;20040;-51
2023/05/25 10:01:03;;;;;;;9.10;4.38;;;;;;;21.24;43.71;103040.75;5051709;28;20112;-44
2023/05/25 10:03:29;;;;;;;9.77;3.97;;;;;;;21.47;42.66;103041.72;5051639;28;20049;-49
2023/05/25 10:05:55;;;;;;;7.35;3.60;;;;;;;21.40;40.96;103040.84;5033203;28;20090;-47
2023/05/25 10:08:22;;;;;;;9.75;3.60;;;;;;;21.73;40.14;103033.81;5050543;28;20041;-44
2023/05/25 10:10:48;;;;;;;8.55;3.90;;;;;;;21.80;40.29;103040.91;5050352;28;20032;-46
2023/05/25 10:13:18;;;;;;;8.45;3.85;;;;;;;21.68;41.89;103047.09;5050726;28;20036;-44
2023/05/25 10:15:46;;;;;;;9.98;3.90;;;;;;;20.76;42.82;103054.66;5032679;28;20033;-46
2023/05/25 10:18:14;;;;;;;9.80;3.55;;;;;;;21.10;42.02;103047.78;5050821;28;20502;-45
2023/05/25 10:20:41;;;;;;;7.25;3.88;;;;;;;20.56;42.45;103052.75;5051101;28;20115;-46
2023/05/25 10:23:13;;;;;;;7.53;3.58;;;;;;;21.03;41.89;103045.09;5051409;28;20399;-46
2023/05/25 10:25:43;;;;;;;8.68;3.70;;;;;;;21.09;42.02;103048.63;5050928;28;20491;-46
2023/05/25 10:28:37;;;;;;;7.22;3.60;;;;;;;20.79;42.68;103046.72;5052644;28;20040;-52
2023/05/25 10:31:03;;;;;;;8.07;3.80;;;;;;;20.83;42.49;103051.16;5043004;28;20033;-46
2023/05/25 10:33:30;;;;;;;9.77;4.03;;;;;;;20.78;43.18;103052.91;5051979;28;20041;-44
2023/05/25 10:35:56;;;;;;;10.45;4.40;;;;;;;20.58;43.66;103055.41;5051946;28;20051;-45
2023/05/25 10:38:22;;;;;;;11.15;5.68;;;;;;;20.78;45.39;103059.09;5035135;28;20124;-44
2023/05/25 10:40:50;;;;;;;10.50;6.40;;;;;;;20.69;46.33;103063.44;5053719;28;20087;-45
2023/05/25 10:43:19;;;;;;;11.30;6.35;;;;;;;20.47;47.50;103062.41;5053724;28;20025;-45
2023/05/25 10:45:46;;;;;;;14.90;6.75;;;;;;;20.47;47.20;103062.41;5049960;28;20068;-45
2023/05/25 10:48:13;;;;;;;11.85;6.00;;;;;;;20.74;46.61;103065.22;5049981;28;20547;-44
2023/05/25 10:50:38;;;;;;;13.30;6.10;;;;;;;20.84;45.90;103056.47;5056048;28;20064;-46
2023/05/25 10:53:11;;;;;;;13.48;6.30;;;;;;;20.66;46.48;103061.66;5055827;28;20483;-45
2023/05/25 10:55:59;;;;;;;11.45;5.55;;;;;;;21.16;45.28;103056.69;5055085;28;20116;-45
2023/05/25 10:58:27;;;;;;;11.35;5.75;;;;;;;21.30;45.28;103064.66;5032096;28;20052;-46
2023/05/25 11:01:05;;;;;;;15.30;6.28;;;;;;;21.74;43.81;103070.09;5049466;28;20395;-48
2023/05/25 11:03:46;;;;;;;11.57;6.07;;;;;;;21.52;44.40;103070.94;5048831;28;20039;-45
2023/05/25 11:06:12;;;;;;;12.73;6.55;;;;;;;20.48;46.43;103058.91;5048939;28;20780;-45
2023/05/25 11:08:54;;;;;;;11.88;5.70;;;;;;;21.07;46.05;103069.84;5049713;28;20032;-50
2023/05/25 11:11:21;;;;;;;11.43;6.00;;;;;;;20.89;46.00;103060.03;5049151;28;20055;-49
2023/05/25 11:13:48;;;;;;;13.52;6.20;;;;;;;20.71;46.00;103059.94;5050148;28;20037;-45
2023/05/25 11:16:17;;;;;;;14.25;6.30;;;;;;;21.18;45.51;103060.19;5033431;28;20123;-49
2023/05/25 11:18:45;;;;;;;12.05;5.90;;;;;;;21.16;45.18;103059.31;5050414;28;20064;-46